Time;durP1;ratioP1;P1;durP2;ratioP2;P2;SDS_P1;SDS_P2;PMS_P1;PMS_P2;Temp;Humidity;BMP_temperature;BMP_pressure;BME280_temperature;BME280_humidity;BME280_pressure;Samples;Min_cycle;Max_cycle;Signal;HPM_P1;HPM_P2
2022/01/27 00:05:39;;;;;;;25.20;13.97;;;-2.60;99.90;;;;;;5113575;28;20488;-77
2022/01/27 00:12:57;;;;;;;29.60;14.37;;;;;;;;;;5113803;28;20174;-77
2022/01/27 00:15:30;;;;;;;28.57;14.23;;;;;;;;;;5113377;28;20191;-77
2022/01/27 00:18:00;;;;;;;26.20;14.53;;;;;;;;;;5113488;28;20515;-77
2022/01/27 00:20:26;;;;;;;28.87;14.90;;;;;;;;;;5113474;28;20448;-77
2022/01/27 00:22:52;;;;;;;27.47;15.50;;;;;;;;;;5113671;28;20398;-77
2022/01/27 00:25:18;;;;;;;26.10;13.70;;;;;;;;;;5112061;28;20906;-77
2022/01/27 00:27:44;;;;;;;27.10;14.07;;;;;;;;;;5113497;28;20514;-77
2022/01/27 00:30:11;;;;;;;24.03;13.07;;;;;;;;;;5118516;28;20425;-77
2022/01/27 00:32:37;;;;;;;24.83;13.77;;;;;;;;;;5113922;28;20435;-77
2022/01/27 00:35:04;;;;;;;28.07;14.30;;;-2.80;99.90;;;;;;5117477;28;20399;-77
2022/01/27 00:37:30;;;;;;;25.67;13.60;;;;;;;;;;5117469;28;20425;-77
2022/01/27 00:39:56;;;;;;;21.00;11.67;;;;;;;;;;5117678;28;20401;-76
2022/01/27 00:42:24;;;;;;;21.57;13.13;;;;;;;;;;5116043;28;20958;-77
2022/01/27 00:44:50;;;;;;;25.47;13.23;;;;;;;;;;5117309;28;20469;-77
2022/01/27 00:47:16;;;;;;;25.07;14.00;;;;;;;;;;5117189;28;20421;-77
2022/01/27 00:49:42;;;;;;;25.63;12.50;;;;;;;;;;5117378;28;20708;-77
2022/01/27 00:52:13;;;;;;;28.07;13.33;;;-2.70;99.90;;;;;;5115788;28;20423;-77
2022/01/27 00:54:39;;;;;;;22.43;12.80;;;;;;;;;;5116967;28;20763;-77
2022/01/27 00:57:16;;;;;;;20.63;10.90;;;;;;;;;;5115760;28;20452;-77
2022/01/27 00:59:59;;;;;;;17.93;9.53;;;;;;;;;;5117186;28;20210;-77
2022/01/27 01:02:49;;;;;;;19.00;9.93;;;-2.40;99.90;;;;;;5115704;28;21116;-77
2022/01/27 01:07:57;;;;;;;17.53;9.70;;;;;;;;;;5117443;28;20477;-77
2022/01/27 01:15:52;;;;;;;17.63;8.60;;;;;;;;;;5116823;28;20890;-77
2022/01/27 01:31:31;;;;;;;12.03;7.70;;;-2.40;99.90;;;;;;5116478;28;20430;-77
2022/01/27 01:34:10;;;;;;;13.80;7.90;;;-2.40;99.90;;;;;;5116306;28;20382;-77
2022/01/27 01:36:45;;;;;;;11.17;7.03;;;-2.40;99.90;;;;;;5116791;28;20901;-77
2022/01/27 01:39:12;;;;;;;10.43;6.50;;;;;;;;;;5116588;28;20389;-77
2022/01/27 01:41:38;;;;;;;12.00;7.20;;;-2.50;99.90;;;;;;5116344;28;20780;-77
2022/01/27 01:44:05;;;;;;;11.20;5.53;;;-2.40;99.90;;;;;;5114573;28;20413;-77
2022/01/27 01:46:31;;;;;;;12.60;5.93;;;;;;;;;;5115435;28;20480;-76
2022/01/27 01:48:57;;;;;;;11.23;6.27;;;;;;;;;;5116354;28;20412;-77
2022/01/27 01:51:26;;;;;;;8.90;5.97;;;-2.50;99.90;;;;;;5116046;28;20410;-77
2022/01/27 01:53:52;;;;;;;8.33;4.90;;;;;;;;;;5115907;28;20914;-77
2022/01/27 01:56:18;;;;;;;8.07;4.73;;;;;;;;;;5116335;28;20929;-76
2022/01/27 01:58:44;;;;;;;9.30;5.23;;;;;;;;;;5115850;28;20462;-77
2022/01/27 02:01:10;;;;;;;7.93;4.43;;;;;;;;;;5115868;28;20445;-77
2022/01/27 02:03:36;;;;;;;10.17;5.50;;;;;;;;;;5115819;28;20178;-77
2022/01/27 02:06:02;;;;;;;8.30;4.23;;;;;;;;;;5115652;28;20504;-77
2022/01/27 02:19:28;;;;;;;7.50;3.83;;;-2.20;99.90;;;;;;5115873;28;20389;-77
2022/01/27 02:21:58;;;;;;;9.47;5.40;;;-2.20;99.90;;;;;;5115366;28;20498;-76
2022/01/27 02:24:29;;;;;;;9.40;4.90;;;-2.20;99.90;;;;;;5115313;28;20476;-77
2022/01/27 02:26:55;;;;;;;7.57;4.60;;;;;;;;;;5114120;28;20437;-77
2022/01/27 02:29:22;;;;;;;12.17;4.90;;;-2.00;99.90;;;;;;5114127;28;20413;-77
2022/01/27 02:31:49;;;;;;;6.23;3.80;;;-2.00;99.90;;;;;;5115446;28;20417;-77
2022/01/27 02:34:15;;;;;;;7.20;4.07;;;;;;;;;;5113961;28;20475;-77
2022/01/27 02:36:41;;;;;;;9.57;4.23;;;;;;;;;;5118363;28;20429;-77
2022/01/27 02:39:08;;;;;;;5.53;3.93;;;-1.80;99.90;;;;;;5117234;28;20501;-77
2022/01/27 02:41:49;;;;;;;5.80;3.93;;;-1.70;99.90;;;;;;5114890;28;20449;-77
2022/01/27 02:44:46;;;;;;;6.13;4.23;;;-1.60;99.90;;;;;;5113475;28;20425;-77
2022/01/27 02:47:14;;;;;;;6.80;3.50;;;-1.70;99.90;;;;;;5111628;28;20450;-77
2022/01/27 02:49:40;;;;;;;8.93;4.70;;;;;;;;;;5115195;28;20500;-77
2022/01/27 02:52:06;;;;;;;7.23;4.13;;;-1.30;99.90;;;;;;5114979;28;20409;-77
2022/01/27 02:54:32;;;;;;;5.37;3.33;;;;;;;;;;5113424;28;20513;-77
2022/01/27 02:56:58;;;;;;;5.00;3.10;;;;;;;;;;5114889;28;20429;-77
2022/01/27 02:59:25;;;;;;;5.47;3.47;;;-1.40;99.90;;;;;;5113630;28;20442;-77
2022/01/27 03:01:51;;;;;;;7.13;3.67;;;-1.40;99.90;;;;;;5114568;28;20513;-77
2022/01/27 03:04:19;;;;;;;9.03;3.60;;;-1.30;99.90;;;;;;5114461;28;20409;-77
2022/01/27 03:06:46;;;;;;;4.97;3.70;;;-1.30;99.90;;;;;;5114707;28;20831;-77
2022/01/27 03:09:12;;;;;;;5.33;3.13;;;-1.20;99.90;;;;;;5114509;28;20502;-77
2022/01/27 03:12:17;;;;;;;4.43;3.07;;;-1.20;99.90;;;;;;5113452;28;20844;-77
2022/01/27 03:14:43;;;;;;;4.83;3.10;;;-1.20;99.90;;;;;;5071490;28;20437;-77
2022/01/27 03:17:10;;;;;;;6.33;3.40;;;-1.20;99.90;;;;;;5105932;28;20926;-77
2022/01/27 03:19:37;;;;;;;4.73;3.10;;;-1.20;99.90;;;;;;5114242;28;20500;-77
2022/01/27 03:22:04;;;;;;;4.87;2.80;;;-1.10;99.90;;;;;;5114152;28;20454;-77
2022/01/27 03:24:31;;;;;;;5.40;2.90;;;-0.80;99.90;;;;;;5114077;28;20386;-77
2022/01/27 03:26:57;;;;;;;5.40;3.07;;;-1.10;99.90;;;;;;5112787;28;20474;-77
2022/01/27 03:29:23;;;;;;;5.93;3.10;;;-1.10;99.90;;;;;;5114062;28;20747;-77
2022/01/27 03:31:49;;;;;;;3.67;2.40;;;-1.10;99.90;;;;;;5114011;28;20416;-77
2022/01/27 03:34:16;;;;;;;5.10;3.07;;;-1.10;99.90;;;;;;5112511;28;20510;-77
2022/01/27 03:36:42;;;;;;;5.17;3.00;;;-1.10;99.90;;;;;;5114034;28;20433;-77
2022/01/27 03:39:09;;;;;;;3.40;2.43;;;-1.10;99.90;;;;;;5114190;28;20419;-77
2022/01/27 03:41:37;;;;;;;5.53;3.20;;;-1.10;99.90;;;;;;5112623;28;20661;-77
2022/01/27 03:44:04;;;;;;;5.00;2.57;;;-1.10;99.90;;;;;;5112504;28;20413;-77
2022/01/27 03:46:30;;;;;;;3.33;2.57;;;-1.10;99.90;;;;;;5113848;28;20512;-77
2022/01/27 03:48:56;;;;;;;5.97;2.50;;;-1.20;99.90;;;;;;5112549;28;20835;-77
2022/01/27 03:51:22;;;;;;;3.57;2.40;;;-1.20;99.90;;;;;;5114300;28;20235;-77
2022/01/27 03:53:47;;;;;;;6.60;2.80;;;-1.20;99.90;;;;;;5112403;28;20236;-77
2022/01/27 03:56:13;;;;;;;5.07;2.93;;;-1.20;99.90;;;;;;5112240;28;20187;-77
2022/01/27 03:58:39;;;;;;;3.97;2.67;;;-1.30;99.90;;;;;;5113625;28;20175;-77
2022/01/27 04:01:05;;;;;;;4.47;2.80;;;-1.30;99.90;;;;;;5113549;28;20203;-77
2022/01/27 04:03:35;;;;;;;4.97;2.57;;;-1.30;99.90;;;;;;5113723;28;20605;-77
2022/01/27 04:06:08;;;;;;;4.17;2.60;;;-1.40;99.90;;;;;;5113471;28;20401;-77
2022/01/27 04:08:37;;;;;;;3.80;2.83;;;-1.40;99.90;;;;;;5113453;28;20518;-77
2022/01/27 04:11:04;;;;;;;6.80;2.70;;;-1.50;99.90;;;;;;5113795;28;20488;-77
2022/01/27 04:13:30;;;;;;;6.53;3.60;;;-1.40;99.90;;;;;;5113491;28;20451;-77
2022/01/27 04:15:56;;;;;;;5.60;3.03;;;-1.50;99.90;;;;;;5113413;28;20794;-77
2022/01/27 04:18:21;;;;;;;4.37;2.53;;;-1.50;99.90;;;;;;5112231;28;20234;-77
2022/01/27 04:20:47;;;;;;;5.67;2.90;;;-1.60;99.90;;;;;;5112598;28;20224;-77
2022/01/27 04:23:13;;;;;;;4.97;2.60;;;-1.60;99.90;;;;;;5113404;28;20527;-77
2022/01/27 04:25:39;;;;;;;8.00;3.73;;;-1.70;99.90;;;;;;5113388;28;20172;-77
2022/01/27 04:28:09;;;;;;;5.70;3.30;;;-1.70;99.90;;;;;;5113364;28;20191;-77
2022/01/27 04:30:34;;;;;;;7.60;2.83;;;-1.70;99.90;;;;;;5113817;28;20906;-77
2022/01/27 04:33:03;;;;;;;5.53;3.03;;;-1.80;99.90;;;;;;5113479;28;20575;-77
2022/01/27 04:35:32;;;;;;;6.10;3.13;;;-1.80;99.90;;;;;;5113228;28;20171;-77
2022/01/27 04:41:10;;;;;;;6.43;3.70;;;;;;;;;;5113659;28;20436;-77
2022/01/27 04:43:32;;;;;;;5.63;3.63;;;-1.90;99.90;;;;;;5116604;28;20405;-77
2022/01/27 04:47:03;;;;;;;6.90;3.50;;;-1.90;99.90;;;;;;5111885;28;20482;-77
2022/01/27 04:48:57;;;;;;;6.23;3.07;;;;;;;;;;5108187;28;20413;-77
2022/01/27 04:51:23;;;;;;;6.67;3.40;;;-2.00;99.90;;;;;;5113421;28;20847;-77
2022/01/27 04:54:29;;;;;;;3.80;2.67;;;-2.00;99.90;;;;;;5111860;28;20417;-77
2022/01/27 04:56:43;;;;;;;6.53;2.47;;;;;;;;;;5111776;28;20446;-77
2022/01/27 04:59:16;;;;;;;5.17;2.87;;;;;;;;;;5112995;28;20822;-77
2022/01/27 05:01:50;;;;;;;4.17;2.47;;;-2.00;99.90;;;;;;5113173;28;20448;-77
2022/01/27 05:04:19;;;;;;;5.10;2.60;;;-2.00;99.90;;;;;;5113132;28;20396;-77
2022/01/27 05:06:45;;;;;;;3.33;2.23;;;-2.00;99.90;;;;;;5112989;28;20437;-77
2022/01/27 05:09:11;;;;;;;5.17;2.70;;;-2.00;99.90;;;;;;5113046;28;20781;-77
2022/01/27 05:11:45;;;;;;;4.30;2.90;;;-2.00;99.90;;;;;;5113006;28;20413;-77
2022/01/27 05:14:19;;;;;;;4.50;2.40;;;-2.10;99.90;;;;;;5113122;28;20160;-77
2022/01/27 05:16:45;;;;;;;3.77;2.53;;;;;;;;;;5112949;28;20546;-77
2022/01/27 05:19:11;;;;;;;3.77;2.47;;;;;;;;;;5112897;28;20440;-77
2022/01/27 05:21:37;;;;;;;4.30;2.40;;;-2.00;99.90;;;;;;5114738;28;20472;-77
2022/01/27 05:24:04;;;;;;;3.80;2.30;;;-1.90;99.90;;;;;;5116507;28;20545;-77
2022/01/27 05:26:30;;;;;;;2.97;1.90;;;;;;;;;;5116290;28;20437;-77
2022/01/27 05:28:56;;;;;;;3.77;1.67;;;-1.30;99.90;;;;;;5116497;28;20408;-77
2022/01/27 05:31:22;;;;;;;4.40;2.03;;;-0.60;99.90;;;;;;5116471;28;20445;-77
2022/01/27 05:33:47;;;;;;;2.80;1.70;;;0.00;99.90;;;;;;5116578;28;20441;-77
2022/01/27 05:36:13;;;;;;;1.53;1.30;;;0.40;99.90;;;;;;5116192;28;20224;-77
2022/01/27 05:38:39;;;;;;;1.73;1.07;;;0.40;99.90;;;;;;5116361;28;20202;-77
2022/01/27 05:41:05;;;;;;;2.70;1.63;;;1.00;99.90;;;;;;5116204;28;20278;-77
2022/01/27 05:43:31;;;;;;;2.27;1.80;;;1.10;99.90;;;;;;5114979;28;20178;-77
2022/01/27 05:45:57;;;;;;;4.33;2.37;;;1.40;99.90;;;;;;5116039;28;20414;-77
2022/01/27 05:48:22;;;;;;;8.73;2.33;;;1.50;99.90;;;;;;5116284;28;20195;-77
2022/01/27 05:50:48;;;;;;;2.50;1.43;;;1.30;99.90;;;;;;5114854;28;20270;-77
2022/01/27 05:53:14;;;;;;;4.77;2.07;;;1.20;99.90;;;;;;5116103;28;20203;-77
2022/01/27 05:55:40;;;;;;;6.37;2.33;;;1.20;99.90;;;;;;5114639;28;20184;-77
2022/01/27 05:58:06;;;;;;;6.63;3.83;;;1.10;99.90;;;;;;5115899;28;20433;-77
2022/01/27 06:00:32;;;;;;;4.30;2.67;;;1.30;99.90;;;;;;5114549;28;20222;-77
2022/01/27 06:02:58;;;;;;;4.07;2.57;;;1.00;99.90;;;;;;5116122;28;20171;-77
2022/01/27 06:05:23;;;;;;;3.03;1.63;;;1.00;99.90;;;;;;5115635;28;20616;-77
2022/01/27 06:07:49;;;;;;;3.17;2.63;;;1.40;99.90;;;;;;5115920;28;20268;-77
2022/01/27 06:10:15;;;;;;;2.37;1.90;;;1.90;99.90;;;;;;5115816;28;20624;-77
2022/01/27 06:12:58;;;;;;;2.40;1.87;;;1.10;99.90;;;;;;5115817;28;20187;-77
2022/01/27 06:15:25;;;;;;;2.40;1.83;;;1.00;99.90;;;;;;5115649;28;20173;-77
2022/01/27 06:17:51;;;;;;;2.47;2.00;;;;;;;;;;5115678;28;20555;-77
2022/01/27 06:20:18;;;;;;;2.97;2.13;;;0.90;99.90;;;;;;5115621;28;20449;-77
2022/01/27 06:22:44;;;;;;;4.70;2.17;;;0.90;99.90;;;;;;5115558;28;20262;-77
2022/01/27 06:25:11;;;;;;;4.87;2.20;;;0.90;99.90;;;;;;5115295;28;20404;-77
2022/01/27 06:27:37;;;;;;;3.00;2.10;;;0.90;99.90;;;;;;5115601;28;20993;-77
2022/01/27 06:30:05;;;;;;;2.13;1.53;;;0.90;99.90;;;;;;5115458;28;20886;-77
2022/01/27 06:32:32;;;;;;;2.23;1.80;;;0.80;99.90;;;;;;5113620;28;20409;-77
2022/01/27 06:34:58;;;;;;;5.37;2.10;;;0.80;99.90;;;;;;5112258;28;20419;-77
2022/01/27 06:37:23;;;;;;;2.67;1.93;;;0.80;99.90;;;;;;5114811;28;20795;-77
2022/01/27 06:39:49;;;;;;;2.37;1.83;;;0.80;99.90;;;;;;5113702;28;20182;-77
2022/01/27 06:42:15;;;;;;;2.43;1.90;;;1.00;99.90;;;;;;5114777;28;20199;-77
2022/01/27 06:44:41;;;;;;;2.13;1.83;;;1.70;99.90;;;;;;5113978;28;20171;-77
2022/01/27 06:47:06;;;;;;;2.40;2.07;;;1.00;99.90;;;;;;5119587;28;20205;-77
2022/01/27 06:49:32;;;;;;;4.43;1.90;;;1.00;99.90;;;;;;5115300;28;20171;-77
2022/01/27 06:51:58;;;;;;;6.13;2.00;;;1.00;99.90;;;;;;5113674;28;20176;-77
2022/01/27 06:54:24;;;;;;;2.60;1.93;;;0.90;99.90;;;;;;5114782;28;20176;-77
2022/01/27 06:56:49;;;;;;;2.73;1.60;;;1.00;99.90;;;;;;5113666;28;20202;-77
2022/01/27 06:59:15;;;;;;;1.87;1.47;;;1.00;99.90;;;;;;5115021;28;20187;-77
2022/01/27 07:01:41;;;;;;;3.07;1.80;;;1.10;99.90;;;;;;5121957;28;20200;-77
2022/01/27 07:04:06;;;;;;;1.97;1.40;;;2.10;99.90;;;;;;5117552;28;20173;-78
2022/01/27 07:06:33;;;;;;;3.27;1.50;;;1.50;99.90;;;;;;5115447;28;20188;-78
2022/01/27 07:08:59;;;;;;;2.27;1.33;;;1.70;99.90;;;;;;5114274;28;20581;-78
2022/01/27 07:11:25;;;;;;;1.53;1.27;;;1.70;99.90;;;;;;5114064;28;20445;-77
2022/01/27 07:13:51;;;;;;;2.80;1.53;;;2.00;99.70;;;;;;5113604;28;20225;-77
2022/01/27 07:16:17;;;;;;;3.30;1.50;;;2.20;99.10;;;;;;5114600;28;20717;-77
2022/01/27 07:18:42;;;;;;;1.47;1.20;;;2.70;99.60;;;;;;5114901;28;20168;-77
2022/01/27 07:21:08;;;;;;;1.27;1.10;;;2.30;99.00;;;;;;5114748;28;20451;-77
2022/01/27 07:23:34;;;;;;;5.33;1.23;;;2.50;98.20;;;;;;5114925;28;20239;-77
2022/01/27 07:26:00;;;;;;;1.30;1.10;;;2.70;97.80;;;;;;5114866;28;20475;-78
2022/01/27 07:28:26;;;;;;;1.57;1.17;;;2.80;97.30;;;;;;5113769;28;20198;-77
2022/01/27 07:30:52;;;;;;;5.40;2.43;;;2.80;96.90;;;;;;5114924;28;20498;-77
2022/01/27 07:33:18;;;;;;;4.63;1.60;;;2.70;96.80;;;;;;5115278;28;20206;-78
2022/01/27 07:35:44;;;;;;;11.20;5.13;;;2.80;96.40;;;;;;5114984;28;20446;-78
2022/01/27 07:38:10;;;;;;;5.97;2.83;;;2.90;96.30;;;;;;5113780;28;20195;-77
2022/01/27 07:40:35;;;;;;;2.60;1.53;;;3.00;95.50;;;;;;5114781;28;20254;-77
2022/01/27 07:43:01;;;;;;;2.63;1.47;;;3.10;95.10;;;;;;5113943;28;20488;-77
2022/01/27 07:45:27;;;;;;;2.83;1.70;;;3.20;94.50;;;;;;5114804;28;20571;-78
2022/01/27 07:47:53;;;;;;;1.50;1.30;;;3.20;94.30;;;;;;5113199;28;20195;-78
2022/01/27 07:50:19;;;;;;;2.60;1.20;;;3.30;94.00;;;;;;5115002;28;20527;-77
2022/01/27 07:52:45;;;;;;;1.20;1.10;;;3.40;93.30;;;;;;5113377;28;20172;-77
2022/01/27 07:55:12;;;;;;;1.90;1.70;;;3.50;93.30;;;;;;5113385;28;20183;-78
2022/01/27 07:57:39;;;;;;;4.30;2.33;;;3.60;92.50;;;;;;5113449;28;20202;-77
2022/01/27 08:00:07;;;;;;;7.57;3.90;;;3.60;92.80;;;;;;5114641;28;20191;-78
2022/01/27 08:02:32;;;;;;;3.07;2.60;;;3.70;91.70;;;;;;5114964;28;20274;-78
2022/01/27 08:04:59;;;;;;;5.53;2.27;;;3.70;92.10;;;;;;5115044;27;20252;-78
2022/01/27 08:07:25;;;;;;;1.60;1.50;;;3.90;91.60;;;;;;5114635;28;20191;-78
2022/01/27 08:09:50;;;;;;;2.07;1.43;;;3.90;91.10;;;;;;5114947;28;20184;-78
2022/01/27 08:12:16;;;;;;;1.50;1.40;;;4.00;90.60;;;;;;5114908;28;20175;-78
2022/01/27 08:14:42;;;;;;;1.80;1.70;;;4.30;89.30;;;;;;5114908;28;20572;-78
2022/01/27 08:17:07;;;;;;;1.67;1.03;;;4.20;89.70;;;;;;5113490;28;20195;-78
2022/01/27 08:19:33;;;;;;;6.50;1.43;;;4.50;88.80;;;;;;5115712;28;20634;-78
2022/01/27 08:21:59;;;;;;;3.33;1.60;;;4.90;87.20;;;;;;5115571;28;20214;-78
2022/01/27 08:24:25;;;;;;;1.80;1.50;;;5.30;85.20;;;;;;5113766;28;20176;-78
2022/01/27 08:26:57;;;;;;;2.10;1.37;;;5.40;83.10;;;;;;5115629;28;20569;-78
2022/01/27 08:29:29;;;;;;;3.03;1.20;;;5.60;82.20;;;;;;5114171;28;20174;-78
2022/01/27 08:31:58;;;;;;;1.77;1.50;;;6.00;80.50;;;;;;5115316;28;20171;-78
2022/01/27 08:34:31;;;;;;;5.10;1.60;;;6.40;77.10;;;;;;5114847;28;20178;-78
2022/01/27 08:36:58;;;;;;;3.10;1.30;;;6.50;75.40;;;;;;5115151;28;20203;-79
2022/01/27 08:39:24;;;;;;;2.77;1.30;;;6.60;74.90;;;;;;5115035;28;20185;-79
2022/01/27 08:41:50;;;;;;;1.83;1.30;;;6.80;73.00;;;;;;5114613;28;20298;-79
2022/01/27 08:44:16;;;;;;;4.93;1.30;;;6.80;73.40;;;;;;5115973;28;20649;-79
2022/01/27 08:46:41;;;;;;;2.40;1.40;;;6.80;71.80;;;;;;5115096;28;20198;-78
2022/01/27 08:49:07;;;;;;;3.47;1.40;;;6.70;70.60;;;;;;5116889;28;20199;-79
2022/01/27 08:51:33;;;;;;;2.70;1.27;;;6.70;70.30;;;;;;5114455;28;20183;-79
2022/01/27 08:54:00;;;;;;;2.80;1.00;;;6.70;68.90;;;;;;5116422;28;20654;-79
2022/01/27 08:56:25;;;;;;;1.23;1.13;;;7.00;68.80;;;;;;5118382;28;20258;-79
2022/01/27 08:58:51;;;;;;;1.70;1.20;;;7.20;67.40;;;;;;5120500;28;20664;-78
2022/01/27 09:01:17;;;;;;;2.60;1.07;;;7.20;66.10;;;;;;5121109;28;20187;-79
2022/01/27 09:03:43;;;;;;;3.20;1.30;;;7.20;66.30;;;;;;5119517;28;20564;-79
2022/01/27 09:06:09;;;;;;;3.70;1.00;;;7.40;65.30;;;;;;5117522;28;20183;-77
2022/01/27 09:08:34;;;;;;;3.30;1.50;;;7.90;64.00;;;;;;5116037;28;20172;-79
2022/01/27 09:11:00;;;;;;;2.90;1.33;;;8.40;62.70;;;;;;5117903;28;20175;-80
2022/01/27 09:13:25;;;;;;;2.33;1.40;;;8.30;62.50;;;;;;5118867;28;20175;-79
2022/01/27 09:15:51;;;;;;;4.03;0.87;;;8.40;61.90;;;;;;5118909;28;20175;-80
2022/01/27 09:18:17;;;;;;;1.13;0.77;;;8.60;61.90;;;;;;5119190;28;20219;-80
2022/01/27 09:20:44;;;;;;;1.43;0.90;;;8.20;60.00;;;;;;5119237;28;20183;-79
2022/01/27 09:23:14;;;;;;;2.37;0.80;;;8.00;61.10;;;;;;5119030;28;20281;-79
2022/01/27 09:25:46;;;;;;;1.53;0.80;;;8.00;61.10;;;;;;5117560;28;20273;-80
2022/01/27 09:28:13;;;;;;;2.53;1.03;;;7.90;60.50;;;;;;5117523;28;20218;-79
2022/01/27 09:30:39;;;;;;;2.43;1.07;;;8.00;61.40;;;;;;5118852;28;20655;-80
2022/01/27 09:33:05;;;;;;;6.30;1.00;;;8.10;59.90;;;;;;5117326;28;20168;-79
2022/01/27 09:35:31;;;;;;;3.20;1.20;;;8.40;60.20;;;;;;5118648;28;20223;-80
2022/01/27 09:37:58;;;;;;;1.90;1.00;;;8.30;59.10;;;;;;5117183;28;20729;-80
2022/01/27 09:40:25;;;;;;;3.03;1.30;;;8.40;59.50;;;;;;5118873;28;20164;-80
2022/01/27 09:42:53;;;;;;;7.37;1.53;;;8.40;59.60;;;;;;5117581;28;20185;-80
2022/01/27 09:45:20;;;;;;;1.83;1.13;;;8.60;59.40;;;;;;5118364;28;20182;-79
2022/01/27 09:47:59;;;;;;;1.37;1.00;;;8.90;59.30;;;;;;5118339;28;20195;-80
2022/01/27 09:51:23;;;;;;;1.80;1.00;;;9.20;58.90;;;;;;5115786;28;20660;-80
2022/01/27 09:53:20;;;;;;;4.83;1.40;;;9.30;58.00;;;;;;5117148;28;20183;-79
2022/01/27 09:55:46;;;;;;;1.50;1.37;;;9.00;57.80;;;;;;5117589;28;20538;-77
2022/01/27 09:58:12;;;;;;;3.37;1.20;;;9.00;57.20;;;;;;5115056;28;20664;-80
2022/01/27 10:00:37;;;;;;;1.30;1.10;;;8.90;57.70;;;;;;5118110;28;20254;-80
2022/01/27 10:03:13;;;;;;;3.43;1.43;;;9.30;56.80;;;;;;5116518;28;20614;-78
2022/01/27 10:05:39;;;;;;;1.63;1.10;;;9.10;57.10;;;;;;5114083;28;20178;-80
2022/01/27 10:08:11;;;;;;;1.10;0.90;;;8.90;55.90;;;;;;5118169;28;20252;-80
2022/01/27 10:10:42;;;;;;;2.03;1.30;;;8.60;56.20;;;;;;5117568;28;20163;-77
2022/01/27 10:13:28;;;;;;;3.47;1.10;;;8.70;57.10;;;;;;5116151;28;20224;-77
2022/01/27 10:15:56;;;;;;;2.77;1.80;;;8.90;57.00;;;;;;5116331;28;20510;-79
2022/01/27 10:18:25;;;;;;;1.70;1.30;;;9.00;57.30;;;;;;5116069;28;20194;-77
2022/01/27 10:20:58;;;;;;;1.47;1.03;;;8.70;57.50;;;;;;5114307;28;20299;-77
2022/01/27 10:23:28;;;;;;;1.93;1.10;;;8.90;56.80;;;;;;5117658;28;20187;-79
2022/01/27 10:26:08;;;;;;;1.27;0.90;;;9.00;56.70;;;;;;5116378;28;20183;-79
2022/01/27 10:28:49;;;;;;;2.00;1.50;;;9.30;56.10;;;;;;5115146;28;20187;-77
2022/01/27 10:31:20;;;;;;;1.30;1.10;;;9.40;55.30;;;;;;5115708;28;20669;-77
2022/01/27 10:33:54;;;;;;;5.27;1.17;;;9.50;55.20;;;;;;5117026;28;20187;-77
2022/01/27 10:36:27;;;;;;;1.37;1.27;;;9.50;54.90;;;;;;5115636;28;20672;-78
2022/01/27 10:39:01;;;;;;;1.70;0.83;;;9.50;54.20;;;;;;5115586;28;20637;-78
2022/01/27 10:41:32;;;;;;;2.33;1.00;;;9.50;53.40;;;;;;5116678;28;20181;-78
2022/01/27 10:44:13;;;;;;;4.73;2.20;;;9.40;54.40;;;;;;5117312;28;20621;-78
2022/01/27 10:47:21;;;;;;;1.60;1.20;;;10.00;52.90;;;;;;5118935;28;20515;-77
2022/01/27 10:55:08;;;;;;;1.60;1.00;;;10.10;51.30;;;;;;5121632;28;20176;-78
2022/01/27 10:57:34;;;;;;;2.37;1.10;;;9.90;52.70;;;;;;5115933;28;20201;-79
2022/01/27 11:00:15;;;;;;;3.33;1.10;;;10.30;53.20;;;;;;5116029;28;20599;-78
2022/01/27 11:02:58;;;;;;;3.73;1.20;;;10.70;53.10;;;;;;5115616;28;20196;-79
2022/01/27 11:05:27;;;;;;;1.70;1.07;;;10.60;51.80;;;;;;5117250;28;20207;-79
2022/01/27 11:07:52;;;;;;;1.10;1.00;;;10.60;50.80;;;;;;5115837;28;20198;-79
2022/01/27 11:10:20;;;;;;;1.63;1.07;;;10.40;51.10;;;;;;5117558;28;20173;-79
2022/01/27 11:12:47;;;;;;;1.97;1.43;;;10.40;51.70;;;;;;5117451;28;20517;-79
2022/01/27 11:15:16;;;;;;;1.30;1.20;;;10.50;50.90;;;;;;5117824;28;20178;-79
2022/01/27 11:17:43;;;;;;;1.83;1.33;;;10.70;51.80;;;;;;5115353;28;20660;-80
2022/01/27 11:20:25;;;;;;;1.30;1.13;;;10.60;50.50;;;;;;5117872;28;20173;-80
2022/01/27 11:27:53;;;;;;;2.20;1.30;;;10.50;49.30;;;;;;5131491;28;20199;-78
2022/01/27 11:30:49;;;;;;;3.93;1.70;;;10.20;50.40;;;;;;5130375;28;20181;-79
2022/01/27 11:33:15;;;;;;;2.67;1.43;;;10.10;50.20;;;;;;5129009;28;20249;-78
2022/01/27 11:35:41;;;;;;;1.83;1.30;;;10.30;49.90;;;;;;5126545;28;20169;-78
2022/01/27 11:38:08;;;;;;;1.63;1.33;;;10.30;49.20;;;;;;5118828;28;20217;-78
2022/01/27 11:40:45;;;;;;;1.73;1.30;;;10.40;49.60;;;;;;5114857;28;20173;-78
2022/01/27 11:43:16;;;;;;;3.03;1.30;;;10.40;49.60;;;;;;5116641;28;20171;-79
2022/01/27 11:45:46;;;;;;;2.60;1.43;;;10.50;50.10;;;;;;5116158;28;20243;-79
2022/01/27 11:48:28;;;;;;;2.20;1.00;;;11.00;50.80;;;;;;5116186;28;20555;-79
2022/01/27 11:51:06;;;;;;;1.87;1.10;;;11.30;50.00;;;;;;5115235;28;20181;-78
2022/01/27 11:53:33;;;;;;;1.43;1.17;;;11.10;47.10;;;;;;5115609;28;20184;-79
2022/01/27 11:56:02;;;;;;;3.13;1.40;;;10.80;47.20;;;;;;5116689;28;20172;-79
2022/01/27 11:58:29;;;;;;;1.43;1.30;;;10.90;47.70;;;;;;5115314;28;20739;-79
2022/01/27 12:01:14;;;;;;;3.83;2.50;;;11.40;49.10;;;;;;5115048;28;20565;-78
2022/01/27 12:04:00;;;;;;;3.90;1.10;;;11.50;46.50;;;;;;5116450;28;20584;-79
2022/01/27 12:06:26;;;;;;;1.33;1.13;;;11.80;46.10;;;;;;5116071;28;20181;-78
2022/01/27 12:09:17;;;;;;;2.00;1.37;;;11.90;47.00;;;;;;5116611;28;20179;-79
2022/01/27 12:11:50;;;;;;;3.80;1.40;;;12.60;47.90;;;;;;5115228;28;20206;-78
2022/01/27 12:14:21;;;;;;;1.97;1.77;;;12.90;46.40;;;;;;5114732;28;20660;-79
2022/01/27 12:17:06;;;;;;;1.60;1.23;;;13.40;46.80;;;;;;5114953;28;20696;-79
2022/01/27 12:19:51;;;;;;;2.40;1.60;;;12.70;44.20;;;;;;5116449;28;20241;-79
2022/01/27 12:22:17;;;;;;;1.60;1.30;;;12.50;45.60;;;;;;5116290;28;20189;-79
2022/01/27 12:24:52;;;;;;;4.60;1.30;;;12.30;45.10;;;;;;5115167;28;20187;-79
2022/01/27 12:27:18;;;;;;;1.50;1.30;;;11.70;44.10;;;;;;5115212;28;20293;-79
2022/01/27 12:29:49;;;;;;;6.80;1.57;;;11.60;44.10;;;;;;5118620;28;20623;-79
2022/01/27 12:32:21;;;;;;;1.47;1.27;;;11.80;45.60;;;;;;5120736;28;20554;-79
2022/01/27 12:35:07;;;;;;;2.70;1.10;;;11.50;44.10;;;;;;5124034;28;20180;-78
2022/01/27 12:37:38;;;;;;;1.20;1.10;;;12.00;44.00;;;;;;5123666;28;20208;-78
2022/01/27 12:40:33;;;;;;;1.10;1.00;;;12.20;43.10;;;;;;5119873;28;20181;-79
2022/01/27 12:43:02;;;;;;;1.10;1.00;;;12.20;42.80;;;;;;5121038;28;20157;-78
2022/01/27 12:45:33;;;;;;;3.17;1.77;;;12.20;42.40;;;;;;5122356;28;20176;-78
2022/01/27 12:48:06;;;;;;;1.77;1.10;;;11.70;41.60;;;;;;5124633;28;20187;-77
2022/01/27 12:50:34;;;;;;;1.00;0.80;;;11.50;42.50;;;;;;5118026;28;20526;-77
2022/01/27 12:53:03;;;;;;;1.10;1.00;;;11.20;42.10;;;;;;5118405;28;20217;-78
2022/01/27 12:55:40;;;;;;;1.67;1.07;;;11.10;43.10;;;;;;5123691;28;20169;-79
2022/01/27 12:58:17;;;;;;;2.43;1.00;;;11.70;41.80;;;;;;5121167;28;20196;-79
2022/01/27 13:00:48;;;;;;;0.80;0.80;;;11.00;42.20;;;;;;5129012;28;20191;-80
2022/01/27 13:03:15;;;;;;;1.07;0.80;;;10.70;42.60;;;;;;5122926;28;20282;-80
2022/01/27 13:05:44;;;;;;;1.10;1.00;;;10.50;43.30;;;;;;5121458;28;20172;-79
2022/01/27 13:08:14;;;;;;;2.43;0.97;;;10.80;43.30;;;;;;5121948;28;20685;-80
2022/01/27 13:10:54;;;;;;;1.40;0.73;;;10.30;43.50;;;;;;5123535;28;20179;-80
2022/01/27 13:13:26;;;;;;;3.13;1.37;;;10.00;43.40;;;;;;5122401;28;20182;-79
2022/01/27 13:16:05;;;;;;;1.40;1.13;;;9.70;45.70;;;;;;5123232;28;20215;-79
2022/01/27 13:18:59;;;;;;;1.57;1.47;;;9.20;46.00;;;;;;5122407;28;20716;-79
2022/01/27 13:21:29;;;;;;;1.60;1.40;;;9.00;47.30;;;;;;5123609;28;20203;-79
2022/01/27 13:24:09;;;;;;;2.00;1.80;;;8.90;48.30;;;;;;5121583;28;20143;-79
2022/01/27 13:26:35;;;;;;;1.27;1.17;;;8.60;48.10;;;;;;5120308;28;20195;-78
2022/01/27 13:29:02;;;;;;;2.30;1.63;;;8.50;48.60;;;;;;5118750;28;20167;-78
2022/01/27 13:31:27;;;;;;;1.63;1.53;;;8.20;48.80;;;;;;5118582;28;20195;-79
2022/01/27 13:33:53;;;;;;;1.93;1.53;;;8.10;49.80;;;;;;5120448;28;20171;-78
2022/01/27 13:36:25;;;;;;;2.13;1.93;;;8.00;49.80;;;;;;5118228;28;20187;-78
2022/01/27 13:41:31;;;;;;;2.03;1.87;;;8.30;50.80;;;;;;5119176;28;20179;-78
2022/01/27 13:44:20;;;;;;;2.20;1.80;;;8.00;50.40;;;;;;5118570;28;20676;-78
2022/01/27 13:46:49;;;;;;;2.40;2.00;;;8.00;50.60;;;;;;5118183;28;20199;-78
2022/01/27 13:49:22;;;;;;;4.10;2.40;;;7.70;50.90;;;;;;5118668;28;20208;-78
2022/01/27 13:51:54;;;;;;;2.93;2.70;;;7.70;51.30;;;;;;5119729;28;20191;-78
2022/01/27 13:54:30;;;;;;;2.57;2.33;;;7.60;51.40;;;;;;5117315;28;20348;-78
2022/01/27 13:57:02;;;;;;;2.47;1.80;;;7.50;51.90;;;;;;5118917;28;20189;-79
2022/01/27 13:59:44;;;;;;;1.90;1.80;;;7.50;52.90;;;;;;5117187;28;20193;-78
2022/01/27 14:02:18;;;;;;;2.17;1.93;;;7.30;52.30;;;;;;5115328;28;20556;-78
2022/01/27 14:04:46;;;;;;;5.37;3.73;;;7.30;53.20;;;;;;5115343;28;20623;-78
2022/01/27 14:07:22;;;;;;;2.63;2.00;;;7.20;54.00;;;;;;5117345;28;20186;-77
2022/01/27 14:09:48;;;;;;;4.27;3.40;;;7.20;53.30;;;;;;5115665;28;20157;-78
2022/01/27 14:12:19;;;;;;;2.83;2.20;;;7.00;53.30;;;;;;5115888;28;20181;-77